sensor_id;sensor_type;location;lat;lon;timestamp;pressure;altitude;pressure_sealevel;temperature;humidity
72336;BME280;65062;48.446;8.834;2022-12-18T00:01:47;98607.81;;;-15.60;81.91
72336;BME280;65062;48.446;8.834;2022-12-18T00:04:48;98605.34;;;-15.64;81.03
72336;BME280;65062;48.446;8.834;2022-12-18T00:07:48;98603.69;;;-15.87;81.32
72336;BME280;65062;48.446;8.834;2022-12-18T00:10:49;98604.50;;;-15.83;82.85
72336;BME280;65062;48.446;8.834;2022-12-18T00:13:50;98607.00;;;-15.69;82.26
72336;BME280;65062;48.446;8.834;2022-12-18T00:16:50;98602.84;;;-15.92;80.22
72336;BME280;65062;48.446;8.834;2022-12-18T00:19:51;98599.47;;;-16.01;81.61
72336;BME280;65062;48.446;8.834;2022-12-18T00:22:52;98596.16;;;-15.90;83.66
72336;BME280;65062;48.446;8.834;2022-12-18T00:25:52;98604.50;;;-15.76;83.71
72336;BME280;65062;48.446;8.834;2022-12-18T00:28:53;98602.81;;;-16.04;79.79
72336;BME280;65062;48.446;8.834;2022-12-18T00:31:54;98612.84;;;-16.04;81.66
72336;BME280;65062;48.446;8.834;2022-12-18T00:34:54;98618.72;;;-15.96;83.31
72336;BME280;65062;48.446;8.834;2022-12-18T00:37:54;98617.00;;;-16.03;81.96
72336;BME280;65062;48.446;8.834;2022-12-18T00:40:55;98610.31;;;-16.16;81.20
72336;BME280;65062;48.446;8.834;2022-12-18T00:43:55;98612.81;;;-16.19;82.61
72336;BME280;65062;48.446;8.834;2022-12-18T00:46:55;98622.03;;;-16.07;84.76
72336;BME280;65062;48.446;8.834;2022-12-18T00:49:56;98626.25;;;-15.88;84.74
72336;BME280;65062;48.446;8.834;2022-12-18T00:52:56;98622.03;;;-16.06;81.37
72336;BME280;65062;48.446;8.834;2022-12-18T00:55:56;98622.03;;;-16.10;81.97
72336;BME280;65062;48.446;8.834;2022-12-18T00:58:57;98623.72;;;-16.03;82.47
72336;BME280;65062;48.446;8.834;2022-12-18T01:01:57;98617.88;;;-15.98;81.04
72336;BME280;65062;48.446;8.834;2022-12-18T01:04:57;98624.53;;;-15.91;81.54
72336;BME280;65062;48.446;8.834;2022-12-18T01:07:58;98614.53;;;-15.86;83.34
72336;BME280;65062;48.446;8.834;2022-12-18T01:10:58;98612.88;;;-15.75;82.30
72336;BME280;65062;48.446;8.834;2022-12-18T01:13:59;98621.22;;;-15.68;81.62
72336;BME280;65062;48.446;8.834;2022-12-18T01:16:59;98624.56;;;-15.53;81.95
72336;BME280;65062;48.446;8.834;2022-12-18T01:20:02;98619.44;;;-15.18;83.51
72336;BME280;65062;48.446;8.834;2022-12-18T01:23:03;98627.72;;;-14.80;83.66
72336;BME280;65062;48.446;8.834;2022-12-18T01:26:23;98625.97;;;-14.60;83.90
72336;BME280;65062;48.446;8.834;2022-12-18T01:29:24;98624.19;;;-14.39;83.95
72336;BME280;65062;48.446;8.834;2022-12-18T01:32:25;98628.19;;;-14.08;84.85
72336;BME280;65062;48.446;8.834;2022-12-18T01:35:25;98623.78;;;-13.79;84.77
72336;BME280;65062;48.446;8.834;2022-12-18T01:38:25;98632.88;;;-13.64;85.13
72336;BME280;65062;48.446;8.834;2022-12-18T01:41:27;98644.47;;;-13.45;84.96
72336;BME280;65062;48.446;8.834;2022-12-18T01:48:00;98627.31;;;-13.04;84.14
72336;BME280;65062;48.446;8.834;2022-12-18T01:51:01;98630.56;;;-12.94;83.42
72336;BME280;65062;48.446;8.834;2022-12-18T01:54:02;98623.69;;;-12.82;83.24
72336;BME280;65062;48.446;8.834;2022-12-18T01:57:02;98615.22;;;-12.73;83.53
72336;BME280;65062;48.446;8.834;2022-12-18T02:00:09;98619.25;;;-12.59;83.40
72336;BME280;65062;48.446;8.834;2022-12-18T02:03:10;98630.13;;;-12.58;82.61
72336;BME280;65062;48.446;8.834;2022-12-18T02:06:28;98629.13;;;-12.45;82.71
72336;BME280;65062;48.446;8.834;2022-12-18T02:09:35;98625.75;;;-12.41;80.24
72336;BME280;65062;48.446;8.834;2022-12-18T02:13:00;98616.41;;;-12.36;81.36
72336;BME280;65062;48.446;8.834;2022-12-18T02:16:12;98622.97;;;-12.25;81.78
72336;BME280;65062;48.446;8.834;2022-12-18T02:23:04;98625.44;;;-12.19;81.83
72336;BME280;65062;48.446;8.834;2022-12-18T02:29:31;98626.97;;;-12.07;80.65
72336;BME280;65062;48.446;8.834;2022-12-18T02:32:47;98625.41;;;-12.17;80.75
72336;BME280;65062;48.446;8.834;2022-12-18T02:35:50;98641.31;;;-12.11;81.38
72336;BME280;65062;48.446;8.834;2022-12-18T02:38:51;98642.88;;;-12.04;80.83
72336;BME280;65062;48.446;8.834;2022-12-18T02:41:53;98631.06;;;-11.99;81.20
72336;BME280;65062;48.446;8.834;2022-12-18T02:44:56;98641.28;;;-12.09;81.01
72336;BME280;65062;48.446;8.834;2022-12-18T02:47:56;98646.38;;;-12.14;82.20
72336;BME280;65062;48.446;8.834;2022-12-18T02:54:10;98645.69;;;-12.25;80.99
72336;BME280;65062;48.446;8.834;2022-12-18T02:57:20;98634.03;;;-12.35;80.74
72336;BME280;65062;48.446;8.834;2022-12-18T03:00:34;98635.13;;;-12.55;79.95
72336;BME280;65062;48.446;8.834;2022-12-18T03:03:47;98634.53;;;-12.74;80.59
72336;BME280;65062;48.446;8.834;2022-12-18T03:06:54;98618.72;;;-12.89;80.13
72336;BME280;65062;48.446;8.834;2022-12-18T03:09:56;98619.06;;;-13.16;78.22
72336;BME280;65062;48.446;8.834;2022-12-18T03:13:06;98631.84;;;-13.39;78.63
72336;BME280;65062;48.446;8.834;2022-12-18T03:16:11;98622.88;;;-13.72;79.36
72336;BME280;65062;48.446;8.834;2022-12-18T03:19:16;98627.25;;;-13.95;79.08
72336;BME280;65062;48.446;8.834;2022-12-18T03:22:19;98639.09;;;-14.12;80.04
72336;BME280;65062;48.446;8.834;2022-12-18T03:25:21;98639.25;;;-14.37;79.04
72336;BME280;65062;48.446;8.834;2022-12-18T03:28:23;98645.16;;;-14.44;79.46
72336;BME280;65062;48.446;8.834;2022-12-18T03:31:26;98630.13;;;-14.55;80.55
72336;BME280;65062;48.446;8.834;2022-12-18T03:34:34;98631.81;;;-14.55;81.42
72336;BME280;65062;48.446;8.834;2022-12-18T03:37:35;98642.72;;;-14.58;82.79
72336;BME280;65062;48.446;8.834;2022-12-18T03:56:39;98621.91;;;-14.94;82.12
72336;BME280;65062;48.446;8.834;2022-12-18T03:59:41;98619.41;;;-14.94;83.82
72336;BME280;65062;48.446;8.834;2022-12-18T04:02:44;98626.97;;;-15.05;80.78
72336;BME280;65062;48.446;8.834;2022-12-18T04:05:47;98626.22;;;-15.38;79.48
72336;BME280;65062;48.446;8.834;2022-12-18T04:08:50;98632.91;;;-15.45;81.21
72336;BME280;65062;48.446;8.834;2022-12-18T04:11:51;98642.13;;;-15.63;80.43
72336;BME280;65062;48.446;8.834;2022-12-18T04:14:52;98643.78;;;-15.72;81.01
72336;BME280;65062;48.446;8.834;2022-12-18T04:17:52;98640.47;;;-15.70;82.34
72336;BME280;65062;48.446;8.834;2022-12-18T04:20:52;98637.09;;;-15.74;82.20
72336;BME280;65062;48.446;8.834;2022-12-18T04:23:53;98641.28;;;-15.65;81.89
72336;BME280;65062;48.446;8.834;2022-12-18T04:26:53;98634.56;;;-15.89;79.96
72336;BME280;65062;48.446;8.834;2022-12-18T04:29:54;98635.41;;;-15.92;79.68
72336;BME280;65062;48.446;8.834;2022-12-18T04:32:54;98622.88;;;-15.96;81.57
72336;BME280;65062;48.446;8.834;2022-12-18T04:35:54;98625.38;;;-15.93;83.23
72336;BME280;65062;48.446;8.834;2022-12-18T04:38:55;98635.41;;;-15.92;82.51
72336;BME280;65062;48.446;8.834;2022-12-18T04:41:55;98650.44;;;-16.05;79.68
72336;BME280;65062;48.446;8.834;2022-12-18T04:44:56;98642.88;;;-16.44;78.32
72336;BME280;65062;48.446;8.834;2022-12-18T04:48:00;98644.50;;;-16.40;81.21
72336;BME280;65062;48.446;8.834;2022-12-18T04:51:03;98645.38;;;-16.23;83.95
72336;BME280;65062;48.446;8.834;2022-12-18T04:54:04;98635.41;;;-16.05;83.09
72336;BME280;65062;48.446;8.834;2022-12-18T04:57:05;98616.19;;;-16.15;81.72
72336;BME280;65062;48.446;8.834;2022-12-18T05:00:06;98608.63;;;-16.30;81.64
72336;BME280;65062;48.446;8.834;2022-12-18T05:03:06;98613.69;;;-16.08;83.07
72336;BME280;65062;48.446;8.834;2022-12-18T05:06:07;98621.16;;;-16.23;80.33
72336;BME280;65062;48.446;8.834;2022-12-18T05:09:07;98634.50;;;-16.34;81.58
72336;BME280;65062;48.446;8.834;2022-12-18T05:12:08;98634.56;;;-16.18;82.17
72336;BME280;65062;48.446;8.834;2022-12-18T05:15:08;98625.31;;;-16.49;79.76
72336;BME280;65062;48.446;8.834;2022-12-18T05:18:08;98624.47;;;-16.42;81.27
72336;BME280;65062;48.446;8.834;2022-12-18T05:21:09;98626.97;;;-16.42;82.71
72336;BME280;65062;48.446;8.834;2022-12-18T05:24:09;98644.53;;;-16.28;82.35
72336;BME280;65062;48.446;8.834;2022-12-18T05:27:10;98636.16;;;-16.44;81.65
72336;BME280;65062;48.446;8.834;2022-12-18T05:30:10;98639.50;;;-16.42;82.14
72336;BME280;65062;48.446;8.834;2022-12-18T05:33:11;98637.84;;;-16.49;81.69
72336;BME280;65062;48.446;8.834;2022-12-18T05:36:11;98632.84;;;-16.46;82.97
72336;BME280;65062;48.446;8.834;2022-12-18T05:39:12;98639.50;;;-16.49;83.41
72336;BME280;65062;48.446;8.834;2022-12-18T05:42:12;98635.34;;;-16.43;83.11
72336;BME280;65062;48.446;8.834;2022-12-18T05:45:12;98628.63;;;-16.63;80.14
72336;BME280;65062;48.446;8.834;2022-12-18T05:48:13;98624.47;;;-16.49;82.36
72336;BME280;65062;48.446;8.834;2022-12-18T05:51:16;98621.91;;;-16.75;79.66
72336;BME280;65062;48.446;8.834;2022-12-18T05:54:17;98621.03;;;-16.83;80.69
72336;BME280;65062;48.446;8.834;2022-12-18T05:57:17;98626.84;;;-16.85;81.43
72336;BME280;65062;48.446;8.834;2022-12-18T06:00:17;98622.66;;;-16.85;80.19
72336;BME280;65062;48.446;8.834;2022-12-18T06:03:18;98635.94;;;-17.01;79.32
72336;BME280;65062;48.446;8.834;2022-12-18T06:06:20;98631.72;;;-17.11;80.84
72336;BME280;65062;48.446;8.834;2022-12-18T06:09:21;98642.63;;;-17.03;82.84
72336;BME280;65062;48.446;8.834;2022-12-18T06:12:21;98646.00;;;-16.93;84.52
72336;BME280;65062;48.446;8.834;2022-12-18T06:15:21;98646.84;;;-16.91;81.81
72336;BME280;65062;48.446;8.834;2022-12-18T06:18:22;98657.66;;;-16.92;81.18
72336;BME280;65062;48.446;8.834;2022-12-18T06:21:22;98659.31;;;-16.99;80.89
72336;BME280;65062;48.446;8.834;2022-12-18T06:24:23;98666.88;;;-16.93;81.49
72336;BME280;65062;48.446;8.834;2022-12-18T06:27:23;98660.97;;;-16.98;81.10
72336;BME280;65062;48.446;8.834;2022-12-18T06:30:23;98665.16;;;-17.03;81.66
72336;BME280;65062;48.446;8.834;2022-12-18T06:33:26;98666.03;;;-16.87;83.65
72336;BME280;65062;48.446;8.834;2022-12-18T06:36:31;98676.09;;;-16.81;82.74
72336;BME280;65062;48.446;8.834;2022-12-18T06:39:31;98678.41;;;-17.14;79.28
72336;BME280;65062;48.446;8.834;2022-12-18T06:42:31;98686.69;;;-17.21;81.10
72336;BME280;65062;48.446;8.834;2022-12-18T06:45:32;98697.59;;;-17.15;82.17
72336;BME280;65062;48.446;8.834;2022-12-18T06:48:32;98689.41;;;-16.90;83.75
72336;BME280;65062;48.446;8.834;2022-12-18T06:51:33;98694.28;;;-17.08;80.83
72336;BME280;65062;48.446;8.834;2022-12-18T06:54:33;98690.09;;;-17.12;80.92
72336;BME280;65062;48.446;8.834;2022-12-18T06:57:34;98695.13;;;-17.07;82.82
72336;BME280;65062;48.446;8.834;2022-12-18T07:00:34;98707.72;;;-16.92;82.87
72336;BME280;65062;48.446;8.834;2022-12-18T07:03:34;98705.22;;;-16.98;81.39
72336;BME280;65062;48.446;8.834;2022-12-18T07:06:35;98699.31;;;-17.06;81.74
72336;BME280;65062;48.446;8.834;2022-12-18T07:09:36;98714.25;;;-17.15;79.85
72336;BME280;65062;48.446;8.834;2022-12-18T07:12:36;98710.88;;;-17.25;79.40
72336;BME280;65062;48.446;8.834;2022-12-18T07:15:37;98715.03;;;-17.24;81.31
72336;BME280;65062;48.446;8.834;2022-12-18T07:18:37;98725.84;;;-17.28;80.93
72336;BME280;65062;48.446;8.834;2022-12-18T07:21:37;98723.38;;;-17.23;82.39
72336;BME280;65062;48.446;8.834;2022-12-18T07:24:38;98721.78;;;-17.12;82.64
72336;BME280;65062;48.446;8.834;2022-12-18T07:27:38;98722.56;;;-17.21;79.66
72336;BME280;65062;48.446;8.834;2022-12-18T07:30:38;98720.06;;;-17.19;81.58
72336;BME280;65062;48.446;8.834;2022-12-18T07:33:39;98716.75;;;-17.14;82.11
72336;BME280;65062;48.446;8.834;2022-12-18T07:36:39;98720.91;;;-17.19;81.32
72336;BME280;65062;48.446;8.834;2022-12-18T07:39:40;98731.78;;;-17.12;82.69
72336;BME280;65062;48.446;8.834;2022-12-18T07:42:40;98720.97;;;-17.07;81.38
72336;BME280;65062;48.446;8.834;2022-12-18T07:45:42;98715.16;;;-17.09;79.89
72336;BME280;65062;48.446;8.834;2022-12-18T07:48:43;98715.13;;;-17.13;80.59
72336;BME280;65062;48.446;8.834;2022-12-18T07:51:43;98720.19;;;-17.04;81.49
72336;BME280;65062;48.446;8.834;2022-12-18T07:54:49;98721.94;;;-16.90;82.06
72336;BME280;65062;48.446;8.834;2022-12-18T07:57:50;98726.09;;;-16.92;80.65
72336;BME280;65062;48.446;8.834;2022-12-18T08:00:50;98740.94;;;-17.13;78.33
72336;BME280;65062;48.446;8.834;2022-12-18T08:03:50;98739.31;;;-17.08;80.08
72336;BME280;65062;48.446;8.834;2022-12-18T08:06:51;98738.59;;;-16.93;81.60
72336;BME280;65062;48.446;8.834;2022-12-18T08:09:51;98736.97;;;-16.85;80.32
72336;BME280;65062;48.446;8.834;2022-12-18T08:12:52;98726.16;;;-16.83;80.81
72336;BME280;65062;48.446;8.834;2022-12-18T08:16:00;98732.84;;;-16.74;80.88
72336;BME280;65062;48.446;8.834;2022-12-18T08:19:01;98727.91;;;-16.65;79.98
72336;BME280;65062;48.446;8.834;2022-12-18T08:22:01;98741.28;;;-16.62;80.48
72336;BME280;65062;48.446;8.834;2022-12-18T08:25:02;98739.59;;;-16.63;80.32
72336;BME280;65062;48.446;8.834;2022-12-18T08:28:03;98737.97;;;-16.58;81.20
72336;BME280;65062;48.446;8.834;2022-12-18T08:31:04;98733.84;;;-16.38;80.52
72336;BME280;65062;48.446;8.834;2022-12-18T08:34:04;98729.69;;;-16.34;81.13
72336;BME280;65062;48.446;8.834;2022-12-18T08:37:05;98748.09;;;-16.26;81.34
72336;BME280;65062;48.446;8.834;2022-12-18T08:40:06;98744.81;;;-16.12;81.03
72336;BME280;65062;48.446;8.834;2022-12-18T08:43:09;98745.66;;;-16.04;79.46
72336;BME280;65062;48.446;8.834;2022-12-18T08:46:40;98739.03;;;-15.97;79.29
72336;BME280;65062;48.446;8.834;2022-12-18T08:49:40;98730.66;;;-15.99;78.22
72336;BME280;65062;48.446;8.834;2022-12-18T08:52:40;98727.31;;;-15.94;78.17
72336;BME280;65062;48.446;8.834;2022-12-18T08:55:41;98719.81;;;-15.83;78.31
72336;BME280;65062;48.446;8.834;2022-12-18T08:58:42;98719.00;;;-15.73;77.70
72336;BME280;65062;48.446;8.834;2022-12-18T09:01:43;98712.38;;;-15.47;78.92
72336;BME280;65062;48.446;8.834;2022-12-18T09:04:43;98712.31;;;-15.14;79.00
72336;BME280;65062;48.446;8.834;2022-12-18T09:07:43;98701.41;;;-15.04;77.69
72336;BME280;65062;48.446;8.834;2022-12-18T09:10:45;98695.56;;;-15.00;76.97
72336;BME280;65062;48.446;8.834;2022-12-18T09:13:46;98694.69;;;-14.75;78.04
72336;BME280;65062;48.446;8.834;2022-12-18T09:16:46;98699.59;;;-14.46;79.72
72336;BME280;65062;48.446;8.834;2022-12-18T09:19:46;98705.31;;;-14.20;80.39
72336;BME280;65062;48.446;8.834;2022-12-18T09:22:47;98701.00;;;-13.87;79.67
72336;BME280;65062;48.446;8.834;2022-12-18T09:25:47;98700.84;;;-13.69;79.81
72336;BME280;65062;48.446;8.834;2022-12-18T09:28:48;98692.31;;;-13.45;79.78
72336;BME280;65062;48.446;8.834;2022-12-18T09:31:49;98697.22;;;-13.28;79.47
72336;BME280;65062;48.446;8.834;2022-12-18T09:34:49;98695.38;;;-13.10;79.53
72336;BME280;65062;48.446;8.834;2022-12-18T09:37:50;98691.97;;;-13.04;78.36
72336;BME280;65062;48.446;8.834;2022-12-18T09:40:52;98694.28;;;-12.86;79.37
72336;BME280;65062;48.446;8.834;2022-12-18T09:43:58;98693.28;;;-12.70;79.04
72336;BME280;65062;48.446;8.834;2022-12-18T09:47:12;98690.66;;;-12.61;77.58
72336;BME280;65062;48.446;8.834;2022-12-18T09:50:27;98688.81;;;-12.46;79.05
72336;BME280;65062;48.446;8.834;2022-12-18T09:53:31;98691.78;;;-12.14;79.19
72336;BME280;65062;48.446;8.834;2022-12-18T09:56:38;98693.09;;;-11.84;79.66
72336;BME280;65062;48.446;8.834;2022-12-18T09:59:42;98701.09;;;-11.58;77.97
72336;BME280;65062;48.446;8.834;2022-12-18T10:02:44;98688.34;;;-11.51;75.85
72336;BME280;65062;48.446;8.834;2022-12-18T10:09:31;98701.91;;;-11.01;77.14
72336;BME280;65062;48.446;8.834;2022-12-18T10:12:43;98692.31;;;-10.84;75.95
72336;BME280;65062;48.446;8.834;2022-12-18T10:22:43;98682.41;;;-10.07;74.97
72336;BME280;65062;48.446;8.834;2022-12-18T10:26:04;98687.78;;;-9.82;74.86
72336;BME280;65062;48.446;8.834;2022-12-18T10:29:13;98694.69;;;-9.52;74.99
72336;BME280;65062;48.446;8.834;2022-12-18T10:32:17;98686.19;;;-9.15;73.66
72336;BME280;65062;48.446;8.834;2022-12-18T10:35:20;98680.44;;;-8.88;73.22
72336;BME280;65062;48.446;8.834;2022-12-18T10:41:26;98676.06;;;-8.20;72.17
72336;BME280;65062;48.446;8.834;2022-12-18T10:44:27;98681.16;;;-7.91;70.72
72336;BME280;65062;48.446;8.834;2022-12-18T10:47:27;98679.59;;;-7.67;70.98
72336;BME280;65062;48.446;8.834;2022-12-18T10:50:31;98666.03;;;-7.66;70.05
72336;BME280;65062;48.446;8.834;2022-12-18T10:53:34;98661.00;;;-7.40;70.26
72336;BME280;65062;48.446;8.834;2022-12-18T10:56:36;98648.41;;;-7.19;69.78
72336;BME280;65062;48.446;8.834;2022-12-18T10:59:51;98654.88;;;-6.10;67.04
72336;BME280;65062;48.446;8.834;2022-12-18T11:02:52;98654.06;;;-4.04;61.10
72336;BME280;65062;48.446;8.834;2022-12-18T11:06:02;98652.50;;;-2.48;54.82
72336;BME280;65062;48.446;8.834;2022-12-18T11:09:05;98644.19;;;-0.51;49.16
72336;BME280;65062;48.446;8.834;2022-12-18T11:12:19;98636.31;;;0.90;45.31
72336;BME280;65062;48.446;8.834;2022-12-18T11:15:27;98635.66;;;2.14;41.79
72336;BME280;65062;48.446;8.834;2022-12-18T11:18:33;98633.97;;;2.86;40.22
72336;BME280;65062;48.446;8.834;2022-12-18T11:21:39;98635.09;;;3.63;38.10
72336;BME280;65062;48.446;8.834;2022-12-18T11:24:41;98628.47;;;4.16;37.12
72336;BME280;65062;48.446;8.834;2022-12-18T11:27:48;98633.25;;;3.76;36.62
72336;BME280;65062;48.446;8.834;2022-12-18T11:30:49;98624.78;;;4.18;35.89
72336;BME280;65062;48.446;8.834;2022-12-18T11:36:53;98625.63;;;4.30;36.31
72336;BME280;65062;48.446;8.834;2022-12-18T11:40:17;98609.31;;;4.61;35.83
72336;BME280;65062;48.446;8.834;2022-12-18T11:43:28;98600.25;;;4.56;35.75
72336;BME280;65062;48.446;8.834;2022-12-18T11:46:37;98605.50;;;3.33;37.64
72336;BME280;65062;48.446;8.834;2022-12-18T11:49:48;98600.78;;;3.83;38.19
72336;BME280;65062;48.446;8.834;2022-12-18T11:52:49;98602.78;;;3.23;39.16
72336;BME280;65062;48.446;8.834;2022-12-18T11:56:01;98607.50;;;3.29;39.44
72336;BME280;65062;48.446;8.834;2022-12-18T12:16:18;98581.44;;;2.14;43.01
72336;BME280;65062;48.446;8.834;2022-12-18T12:29:13;98567.66;;;1.65;45.90
72336;BME280;65062;48.446;8.834;2022-12-18T12:36:17;98581.38;;;0.89;49.22
72336;BME280;65062;48.446;8.834;2022-12-18T12:39:35;98582.81;;;1.32;48.71
72336;BME280;65062;48.446;8.834;2022-12-18T12:42:42;98582.81;;;1.32;48.73
72336;BME280;65062;48.446;8.834;2022-12-18T12:46:06;98576.50;;;1.74;47.61
72336;BME280;65062;48.446;8.834;2022-12-18T12:49:18;98578.66;;;1.30;49.26
72336;BME280;65062;48.446;8.834;2022-12-18T12:52:35;98575.81;;;1.72;49.09
72336;BME280;65062;48.446;8.834;2022-12-18T12:55:38;98587.47;;;1.77;49.66
72336;BME280;65062;48.446;8.834;2022-12-18T12:58:55;98592.56;;;2.51;48.83
72336;BME280;65062;48.446;8.834;2022-12-18T13:02:06;98594.66;;;2.93;47.23
72336;BME280;65062;48.446;8.834;2022-12-18T13:08:34;98588.06;;;3.80;44.85
72336;BME280;65062;48.446;8.834;2022-12-18T13:11:50;98592.13;;;2.21;48.27
72336;BME280;65062;48.446;8.834;2022-12-18T13:15:33;98597.44;;;1.94;50.57
72336;BME280;65062;48.446;8.834;2022-12-18T13:18:34;98586.31;;;1.94;50.06
72336;BME280;65062;48.446;8.834;2022-12-18T13:21:35;98583.22;;;1.89;50.65
72336;BME280;65062;48.446;8.834;2022-12-18T13:24:35;98585.47;;;1.18;53.25
72336;BME280;65062;48.446;8.834;2022-12-18T13:27:46;98585.72;;;0.36;55.89
72336;BME280;65062;48.446;8.834;2022-12-18T13:30:47;98588.50;;;0.04;56.78
72336;BME280;65062;48.446;8.834;2022-12-18T13:33:48;98591.56;;;-0.59;58.10
72336;BME280;65062;48.446;8.834;2022-12-18T13:36:49;98593.03;;;-0.99;59.58
72336;BME280;65062;48.446;8.834;2022-12-18T13:39:50;98593.78;;;-1.42;61.32
72336;BME280;65062;48.446;8.834;2022-12-18T13:42:50;98589.97;;;-1.19;61.59
72336;BME280;65062;48.446;8.834;2022-12-18T13:49:46;98574.34;;;-1.46;62.31
72336;BME280;65062;48.446;8.834;2022-12-18T13:52:47;98573.38;;;-1.00;62.10
72336;BME280;65062;48.446;8.834;2022-12-18T13:55:49;98576.03;;;-1.01;61.67
72336;BME280;65062;48.446;8.834;2022-12-18T14:05:25;98573.53;;;-2.41;65.76
72336;BME280;65062;48.446;8.834;2022-12-18T14:08:32;98578.41;;;-2.52;66.79
72336;BME280;65062;48.446;8.834;2022-12-18T14:11:33;98578.31;;;-2.83;66.92
72336;BME280;65062;48.446;8.834;2022-12-18T14:14:33;98574.09;;;-3.01;69.03
72336;BME280;65062;48.446;8.834;2022-12-18T14:17:36;98575.84;;;-3.02;68.75
72336;BME280;65062;48.446;8.834;2022-12-18T14:20:39;98575.31;;;-3.08;68.42
72336;BME280;65062;48.446;8.834;2022-12-18T14:23:41;98581.22;;;-3.25;67.55
72336;BME280;65062;48.446;8.834;2022-12-18T14:26:42;98582.97;;;-3.25;69.10
72336;BME280;65062;48.446;8.834;2022-12-18T14:29:44;98579.88;;;-3.67;68.54
72336;BME280;65062;48.446;8.834;2022-12-18T14:33:17;98582.75;;;-3.92;68.45
72336;BME280;65062;48.446;8.834;2022-12-18T14:36:27;98571.16;;;-4.17;69.21
72336;BME280;65062;48.446;8.834;2022-12-18T14:39:27;98579.78;;;-4.39;69.75
72336;BME280;65062;48.446;8.834;2022-12-18T14:42:28;98576.84;;;-4.68;70.99
72336;BME280;65062;48.446;8.834;2022-12-18T14:48:40;98578.50;;;-5.27;72.42
72336;BME280;65062;48.446;8.834;2022-12-18T14:51:47;98585.44;;;-5.31;73.88
72336;BME280;65062;48.446;8.834;2022-12-18T14:54:48;98587.28;;;-5.56;74.71
72336;BME280;65062;48.446;8.834;2022-12-18T14:57:53;98583.63;;;-5.70;74.72
72336;BME280;65062;48.446;8.834;2022-12-18T15:00:54;98588.69;;;-5.90;75.26
72336;BME280;65062;48.446;8.834;2022-12-18T15:03:56;98581.22;;;-6.16;75.14
72336;BME280;65062;48.446;8.834;2022-12-18T15:07:23;98592.38;;;-6.67;74.60
72336;BME280;65062;48.446;8.834;2022-12-18T15:10:25;98591.31;;;-6.84;77.45
72336;BME280;65062;48.446;8.834;2022-12-18T15:13:26;98596.97;;;-7.01;79.01
72336;BME280;65062;48.446;8.834;2022-12-18T15:16:26;98587.56;;;-6.99;80.15
72336;BME280;65062;48.446;8.834;2022-12-18T15:19:48;98585.84;;;-7.23;79.11
72336;BME280;65062;48.446;8.834;2022-12-18T15:22:48;98581.59;;;-7.48;79.13
72336;BME280;65062;48.446;8.834;2022-12-18T15:28:57;98583.41;;;-7.79;79.82
72336;BME280;65062;48.446;8.834;2022-12-18T15:32:18;98590.72;;;-7.96;80.68
72336;BME280;65062;48.446;8.834;2022-12-18T15:35:24;98593.13;;;-8.19;81.38
72336;BME280;65062;48.446;8.834;2022-12-18T15:38:24;98597.38;;;-8.20;83.25
72336;BME280;65062;48.446;8.834;2022-12-18T15:41:25;98593.13;;;-8.19;84.09
72336;BME280;65062;48.446;8.834;2022-12-18T15:44:26;98602.66;;;-8.26;84.51
72336;BME280;65062;48.446;8.834;2022-12-18T15:47:27;98596.13;;;-8.34;81.88
72336;BME280;65062;48.446;8.834;2022-12-18T15:50:28;98598.09;;;-8.44;83.33
72336;BME280;65062;48.446;8.834;2022-12-18T15:53:31;98604.84;;;-8.43;84.64
72336;BME280;65062;48.446;8.834;2022-12-18T15:56:32;98606.06;;;-8.56;83.68
72336;BME280;65062;48.446;8.834;2022-12-18T15:59:53;98609.44;;;-8.57;84.87
72336;BME280;65062;48.446;8.834;2022-12-18T16:02:55;98611.81;;;-8.51;85.96
72336;BME280;65062;48.446;8.834;2022-12-18T16:05:56;98612.28;;;-8.37;86.77
72336;BME280;65062;48.446;8.834;2022-12-18T16:08:58;98611.38;;;-8.34;84.62
72336;BME280;65062;48.446;8.834;2022-12-18T16:12:01;98614.63;;;-8.29;84.27
72336;BME280;65062;48.446;8.834;2022-12-18T16:15:03;98608.63;;;-8.27;84.85
72336;BME280;65062;48.446;8.834;2022-12-18T16:18:04;98609.72;;;-8.08;86.77
72336;BME280;65062;48.446;8.834;2022-12-18T16:21:04;98617.78;;;-7.95;86.50
72336;BME280;65062;48.446;8.834;2022-12-18T16:24:05;98608.25;;;-7.87;87.00
72336;BME280;65062;48.446;8.834;2022-12-18T16:27:06;98597.75;;;-7.77;86.67
72336;BME280;65062;48.446;8.834;2022-12-18T16:30:15;98598.56;;;-7.49;86.75
72336;BME280;65062;48.446;8.834;2022-12-18T16:33:15;98595.09;;;-7.46;86.73
72336;BME280;65062;48.446;8.834;2022-12-18T16:36:16;98598.28;;;-7.40;87.25
72336;BME280;65062;48.446;8.834;2022-12-18T16:39:17;98603.03;;;-7.31;87.22
72336;BME280;65062;48.446;8.834;2022-12-18T16:42:18;98599.59;;;-7.28;85.65
72336;BME280;65062;48.446;8.834;2022-12-18T16:45:19;98602.19;;;-7.30;84.64
72336;BME280;65062;48.446;8.834;2022-12-18T16:48:19;98601.19;;;-7.26;85.42
72336;BME280;65062;48.446;8.834;2022-12-18T16:51:19;98602.59;;;-7.17;85.47
72336;BME280;65062;48.446;8.834;2022-12-18T16:54:20;98599.00;;;-7.12;86.67
72336;BME280;65062;48.446;8.834;2022-12-18T16:57:21;98591.63;;;-6.93;86.83
72336;BME280;65062;48.446;8.834;2022-12-18T17:00:21;98592.16;;;-6.85;85.45
72336;BME280;65062;48.446;8.834;2022-12-18T17:03:22;98591.97;;;-6.79;86.03
72336;BME280;65062;48.446;8.834;2022-12-18T17:06:23;98588.50;;;-6.77;85.81
72336;BME280;65062;48.446;8.834;2022-12-18T17:09:23;98589.25;;;-6.75;84.66
72336;BME280;65062;48.446;8.834;2022-12-18T17:12:26;98590.03;;;-6.73;85.18
72336;BME280;65062;48.446;8.834;2022-12-18T17:15:27;98580.53;;;-6.68;85.61
72336;BME280;65062;48.446;8.834;2022-12-18T17:18:27;98577.31;;;-6.73;85.65
72336;BME280;65062;48.446;8.834;2022-12-18T17:21:27;98575.56;;;-6.71;86.55
72336;BME280;65062;48.446;8.834;2022-12-18T17:24:28;98574.72;;;-6.71;85.91
72336;BME280;65062;48.446;8.834;2022-12-18T17:27:28;98570.13;;;-6.62;86.41
72336;BME280;65062;48.446;8.834;2022-12-18T17:30:28;98561.69;;;-6.62;85.92
72336;BME280;65062;48.446;8.834;2022-12-18T17:33:29;98558.91;;;-6.56;84.30
72336;BME280;65062;48.446;8.834;2022-12-18T17:36:29;98560.50;;;-6.53;85.34
72336;BME280;65062;48.446;8.834;2022-12-18T17:39:31;98578.16;;;-6.49;85.90
72336;BME280;65062;48.446;8.834;2022-12-18T17:42:32;98576.00;;;-6.36;85.99